Flight Track Log - Related Links

Times and Time Zones

All times are in EDT time to prevent confusion due to time zone crossing. See the EGF4039 flight status page for this flight to view local times or setup timezone preferences in your user account.

Time Position Orientation Groundspeed Altitude Reporting Facility
EDT Latitude Longitude Course Direction KTS MPH feet Rate Location/Type
Tue 05:00:55 PM 42.6133 -92.4156 97° East 223 257 4,700  Level Chicago Center
Tue 05:01:57 PM 42.6089 -92.3269 94° East 243 280 7,200 2,661 Climbing Chicago Center
Tue 05:02:59 PM 42.5964 -92.2269 100° East 258 297 10,200 3,048 Climbing Chicago Center
Tue 05:04:01 PM 42.5803 -92.1006 100° East 274 315 13,500 2,758 Climbing Chicago Center
Tue 05:05:00 PM 42.4836 -91.6861 97° East  Level FlightAware Approximate
Tue 05:05:03 PM 42.5675 -91.9881 99° East 290 334 15,900  Level Chicago Center
Tue 05:06:00 PM 42.4769 -91.5651 97° East  Level FlightAware Approximate
Tue 05:06:05 PM 42.5533 -91.8719 99° East 309 356 18,100  Level Chicago Center
Tue 05:07:07 PM 42.5367 -91.7458 100° East 336 387 19,400 1,065 Climbing Chicago Center
Tue 05:08:09 PM 42.5153 -91.5728 99° East 382 440 20,300 919 Climbing Chicago Center
Tue 05:09:11 PM 42.4961 -91.4186 100° East 413 475 21,300 968 Climbing Chicago Center
Tue 05:10:13 PM 42.4742 -91.2617 101° East 429 494 22,300 816 Climbing Chicago Center
Tue 05:11:16 PM 42.4536 -91.1003 100° East 439 505 23,000 336 Climbing Chicago Center
Tue 05:12:18 PM 42.4261 -90.9025 101° East 450 518 23,000  Level Chicago Center
Tue 05:13:20 PM 42.4047 -90.7378 100° East 451 519 23,000  Level Chicago Center
Tue 05:14:22 PM 42.4139 -90.5728 86° East 451 519 23,000  Level Chicago Center
Tue 05:15:24 PM 42.4322 -90.4094 81° East 446 513 23,000  Level Chicago Center
Tue 05:16:26 PM 42.4472 -90.2575 82° East 417 480 23,000 -145 Level Chicago Center
Tue 05:17:28 PM 42.4642 -90.0947 82° East 371 427 22,700 -871 Descending Chicago Center
Tue 05:18:30 PM 42.4758 -89.9686 83° East 346 398 21,200 -1,597 Descending Chicago Center
Tue 05:19:32 PM 42.4889 -89.8458 82° East 339 390 19,400 -1,887 Descending Chicago Center
Tue 05:20:34 PM 42.5025 -89.7000 83° East 335 386 17,300 -1,935 Descending Chicago Center
Tue 05:21:36 PM 42.5128 -89.5792 83° East 325 374 15,400 -1,597 Descending Chicago Center
Tue 05:22:38 PM 42.5244 -89.4656 82° East 307 353 14,000 -677 Descending Chicago Center
Tue 05:23:40 PM 42.5353 -89.3522 83° East 303 349 14,000  Level Chicago Center
Tue 05:24:42 PM 42.5458 -89.2392 83° East 304 350 14,000 -96 Level Chicago Center
Tue 05:25:45 PM 42.5561 -89.1014 84° East 316 364 13,800 -576 Descending Chicago Center
Tue 05:26:47 PM 42.5264 -88.9967 111° Southeast 300 345 12,800 -871 Descending Chicago Center
Tue 05:27:49 PM 42.4917 -88.8867 113° Southeast 317 365 12,000 -581 Descending Chicago Center
Tue 05:28:51 PM 42.4572 -88.7711 112° Southeast 328 377 11,600 -677 Descending Chicago Center
Tue 05:29:53 PM 42.4225 -88.6575 112° Southeast 328 377 10,600 -1,113 Descending Chicago Center
Tue 05:30:55 PM 42.3883 -88.5389 111° Southeast 299 344 9,300 -774 Descending Chicago Center
Tue 05:31:57 PM 42.3567 -88.4450 115° Southeast 284 327 9,000 -145 Descending Chicago Center
Tue 05:32:59 PM 42.2875 -88.4297 171° South 287 330 9,000 -194 Level Chicago Center
Tue 05:34:01 PM 42.1931 -88.3994 167° South 293 337 8,600 -677 Descending Chicago Center
Tue 05:35:03 PM 42.1169 -88.3767 167° South 286 329 7,600 -871 Descending Chicago Center
Tue 05:36:05 PM 42.0494 -88.3594 169° South 254 292 6,800 -768 Descending Chicago Center
Tue 05:37:08 PM 41.9900 -88.3411 167° South 227 261 6,000 -816 Descending Chicago Center
Tue 05:38:10 PM 41.9650 -88.2617 113° Southeast 234 269 5,100 -968 Descending Chicago Center
Tue 05:39:12 PM 41.9675 -88.1622 88° East 225 259 4,000 -1,065 Descending Chicago Center
Tue 05:40:14 PM 41.9681 -88.0803 89° East 224 258 2,900 -1,065 Descending Chicago Center

Login

Don't have an account? Register now (free) for customized features, flight alerts, and more!